sensor_id;sensor_type;location;lat;lon;timestamp;pressure;altitude;pressure_sealevel;temperature;humidity
23016;BME280;11674;52.428;13.584;2023-04-15T00:02:36;100275.97;;;10.57;85.39
23016;BME280;11674;52.428;13.584;2023-04-15T00:07:43;100269.06;;;10.55;85.55
23016;BME280;11674;52.428;13.584;2023-04-15T00:12:50;100267.13;;;10.55;85.45
23016;BME280;11674;52.428;13.584;2023-04-15T00:18:04;100261.59;;;10.55;85.67
23016;BME280;11674;52.428;13.584;2023-04-15T00:23:11;100259.66;;;10.56;85.73
23016;BME280;11674;52.428;13.584;2023-04-15T00:28:18;100265.50;;;10.54;85.72
23016;BME280;11674;52.428;13.584;2023-04-15T00:33:25;100261.88;;;10.54;85.65
23016;BME280;11674;52.428;13.584;2023-04-15T00:38:32;100252.44;;;10.55;85.39
23016;BME280;11674;52.428;13.584;2023-04-15T00:43:39;100259.09;;;10.54;85.60
23016;BME280;11674;52.428;13.584;2023-04-15T00:48:46;100257.97;;;10.55;85.45
23016;BME280;11674;52.428;13.584;2023-04-15T00:53:53;100260.16;;;10.58;85.52
23016;BME280;11674;52.428;13.584;2023-04-15T00:59:00;100256.25;;;10.59;85.46
23016;BME280;11674;52.428;13.584;2023-04-15T01:04:07;100250.72;;;10.59;85.45
23016;BME280;11674;52.428;13.584;2023-04-15T01:09:14;100249.88;;;10.58;85.54
23016;BME280;11674;52.428;13.584;2023-04-15T01:14:21;100243.50;;;10.58;85.57
23016;BME280;11674;52.428;13.584;2023-04-15T01:19:28;100248.78;;;10.59;85.53
23016;BME280;11674;52.428;13.584;2023-04-15T01:24:36;100236.00;;;10.58;85.69
23016;BME280;11674;52.428;13.584;2023-04-15T01:29:43;100242.38;;;10.59;85.61
23016;BME280;11674;52.428;13.584;2023-04-15T01:34:50;100239.31;;;10.60;85.77
23016;BME280;11674;52.428;13.584;2023-04-15T01:39:57;100237.06;;;10.62;85.65
23016;BME280;11674;52.428;13.584;2023-04-15T01:45:04;100227.09;;;10.61;85.61
23016;BME280;11674;52.428;13.584;2023-04-15T01:50:11;100235.41;;;10.61;85.61
23016;BME280;11674;52.428;13.584;2023-04-15T01:55:18;100230.16;;;10.60;85.49
23016;BME280;11674;52.428;13.584;2023-04-15T02:00:25;100231.00;;;10.60;85.51
23016;BME280;11674;52.428;13.584;2023-04-15T02:05:33;100227.69;;;10.58;85.52
23016;BME280;11674;52.428;13.584;2023-04-15T02:10:40;100219.69;;;10.57;85.58
23016;BME280;11674;52.428;13.584;2023-04-15T02:15:48;100225.75;;;10.59;85.46
23016;BME280;11674;52.428;13.584;2023-04-15T02:20:55;100220.19;;;10.59;85.46
23016;BME280;11674;52.428;13.584;2023-04-15T02:26:02;100221.34;;;10.58;85.54
23016;BME280;11674;52.428;13.584;2023-04-15T02:31:09;100227.94;;;10.62;85.62
23016;BME280;11674;52.428;13.584;2023-04-15T02:36:16;100228.72;;;10.62;85.61
23016;BME280;11674;52.428;13.584;2023-04-15T02:41:23;100227.84;;;10.67;85.53
23016;BME280;11674;52.428;13.584;2023-04-15T02:46:30;100222.81;;;10.69;85.72
23016;BME280;11674;52.428;13.584;2023-04-15T02:51:38;100230.81;;;10.70;85.79
23016;BME280;11674;52.428;13.584;2023-04-15T02:56:45;100231.03;;;10.74;85.57
23016;BME280;11674;52.428;13.584;2023-04-15T03:01:52;100233.50;;;10.75;85.68
23016;BME280;11674;52.428;13.584;2023-04-15T03:07:00;100230.66;;;10.80;85.66
23016;BME280;11674;52.428;13.584;2023-04-15T03:12:08;100235.56;;;10.83;85.57
23016;BME280;11674;52.428;13.584;2023-04-15T03:17:15;100232.19;;;10.86;85.38
23016;BME280;11674;52.428;13.584;2023-04-15T03:22:22;100240.44;;;10.91;85.30
23016;BME280;11674;52.428;13.584;2023-04-15T03:27:29;100235.69;;;10.92;85.27
23016;BME280;11674;52.428;13.584;2023-04-15T03:32:37;100229.00;;;10.93;85.45
23016;BME280;11674;52.428;13.584;2023-04-15T03:37:46;100234.25;;;10.94;85.36
23016;BME280;11674;52.428;13.584;2023-04-15T03:42:53;100228.41;;;10.96;85.42
23016;BME280;11674;52.428;13.584;2023-04-15T03:48:00;100236.41;;;10.97;85.57
23016;BME280;11674;52.428;13.584;2023-04-15T03:53:07;100241.97;;;10.97;85.38
23016;BME280;11674;52.428;13.584;2023-04-15T03:58:14;100242.19;;;11.01;85.54
23016;BME280;11674;52.428;13.584;2023-04-15T04:03:21;100240.25;;;11.01;85.54
23016;BME280;11674;52.428;13.584;2023-04-15T04:08:28;100255.22;;;11.00;85.56
23016;BME280;11674;52.428;13.584;2023-04-15T04:13:35;100257.09;;;11.05;85.61
23016;BME280;11674;52.428;13.584;2023-04-15T04:18:42;100248.97;;;11.08;85.53
23016;BME280;11674;52.428;13.584;2023-04-15T04:23:49;100257.50;;;11.12;85.37
23016;BME280;11674;52.428;13.584;2023-04-15T04:28:56;100252.47;;;11.14;85.42
23016;BME280;11674;52.428;13.584;2023-04-15T04:34:03;100241.34;;;11.14;85.29
23016;BME280;11674;52.428;13.584;2023-04-15T04:39:10;100256.38;;;11.13;85.36
23016;BME280;11674;52.428;13.584;2023-04-15T04:44:17;100261.63;;;11.14;85.43
23016;BME280;11674;52.428;13.584;2023-04-15T04:49:24;100259.06;;;11.18;85.59
23016;BME280;11674;52.428;13.584;2023-04-15T04:54:31;100257.63;;;11.20;85.70
23016;BME280;11674;52.428;13.584;2023-04-15T04:59:38;100261.44;;;11.24;85.60
23016;BME280;11674;52.428;13.584;2023-04-15T05:04:45;100271.59;;;11.29;85.73
23016;BME280;11674;52.428;13.584;2023-04-15T05:09:52;100277.38;;;11.32;85.61
23016;BME280;11674;52.428;13.584;2023-04-15T05:14:59;100283.16;;;11.36;85.67
23016;BME280;11674;52.428;13.584;2023-04-15T05:20:06;100291.34;;;11.41;85.81
23016;BME280;11674;52.428;13.584;2023-04-15T05:25:14;100292.41;;;11.45;85.58
23016;BME280;11674;52.428;13.584;2023-04-15T05:30:21;100290.16;;;11.47;85.70
23016;BME280;11674;52.428;13.584;2023-04-15T05:35:28;100292.81;;;11.52;85.88
23016;BME280;11674;52.428;13.584;2023-04-15T05:40:35;100286.63;;;11.55;85.86
23016;BME280;11674;52.428;13.584;2023-04-15T05:45:42;100279.56;;;11.62;85.92
23016;BME280;11674;52.428;13.584;2023-04-15T05:50:49;100278.13;;;11.65;85.78
23016;BME280;11674;52.428;13.584;2023-04-15T05:55:56;100278.03;;;11.70;85.69
23016;BME280;11674;52.428;13.584;2023-04-15T06:01:03;100279.06;;;11.74;85.68
23016;BME280;11674;52.428;13.584;2023-04-15T06:06:10;100281.19;;;11.77;85.61
23016;BME280;11674;52.428;13.584;2023-04-15T06:11:17;100286.75;;;11.77;85.66
23016;BME280;11674;52.428;13.584;2023-04-15T06:16:24;100286.97;;;11.80;85.53
23016;BME280;11674;52.428;13.584;2023-04-15T06:21:31;100279.34;;;11.86;85.70
23016;BME280;11674;52.428;13.584;2023-04-15T06:26:38;100295.09;;;11.90;85.62
23016;BME280;11674;52.428;13.584;2023-04-15T06:31:48;100299.28;;;12.01;85.75
23016;BME280;11674;52.428;13.584;2023-04-15T06:36:55;100312.97;;;12.11;85.74
23016;BME280;11674;52.428;13.584;2023-04-15T06:42:02;100322.41;;;12.24;85.75
23016;BME280;11674;52.428;13.584;2023-04-15T06:47:09;100318.69;;;12.28;85.52
23016;BME280;11674;52.428;13.584;2023-04-15T06:52:16;100327.25;;;12.32;85.75
23016;BME280;11674;52.428;13.584;2023-04-15T06:57:23;100327.13;;;12.37;85.62
23016;BME280;11674;52.428;13.584;2023-04-15T07:02:30;100329.16;;;12.45;85.57
23016;BME280;11674;52.428;13.584;2023-04-15T07:07:37;100343.06;;;12.45;85.67
23016;BME280;11674;52.428;13.584;2023-04-15T07:12:44;100350.16;;;12.51;85.52
23016;BME280;11674;52.428;13.584;2023-04-15T07:17:51;100348.94;;;12.43;85.31
23016;BME280;11674;52.428;13.584;2023-04-15T07:22:58;100347.84;;;12.31;85.33
23016;BME280;11674;52.428;13.584;2023-04-15T07:28:05;100354.66;;;12.25;85.56
23016;BME280;11674;52.428;13.584;2023-04-15T07:33:12;100358.19;;;12.17;85.20
23016;BME280;11674;52.428;13.584;2023-04-15T07:38:19;100361.06;;;12.12;85.36
23016;BME280;11674;52.428;13.584;2023-04-15T07:43:26;100368.88;;;12.10;85.50
23016;BME280;11674;52.428;13.584;2023-04-15T07:48:33;100358.41;;;12.07;85.25
23016;BME280;11674;52.428;13.584;2023-04-15T07:53:40;100364.06;;;12.02;85.50
23016;BME280;11674;52.428;13.584;2023-04-15T07:58:47;100366.00;;;12.01;85.82
23016;BME280;11674;52.428;13.584;2023-04-15T08:03:54;100371.25;;;12.03;85.78
23016;BME280;11674;52.428;13.584;2023-04-15T08:09:01;100379.50;;;12.08;85.78
23016;BME280;11674;52.428;13.584;2023-04-15T08:14:08;100381.88;;;12.14;86.03
23016;BME280;11674;52.428;13.584;2023-04-15T08:19:15;100383.31;;;12.12;85.51
23016;BME280;11674;52.428;13.584;2023-04-15T08:24:23;100385.56;;;12.10;85.53
23016;BME280;11674;52.428;13.584;2023-04-15T08:29:33;100391.34;;;12.13;86.08
23016;BME280;11674;52.428;13.584;2023-04-15T08:34:40;100399.25;;;12.20;85.94
23016;BME280;11674;52.428;13.584;2023-04-15T08:39:47;100393.69;;;12.20;85.58
23016;BME280;11674;52.428;13.584;2023-04-15T08:44:54;100394.31;;;12.17;85.84
23016;BME280;11674;52.428;13.584;2023-04-15T08:50:02;100395.66;;;12.19;85.87
23016;BME280;11674;52.428;13.584;2023-04-15T08:55:10;100401.03;;;12.16;85.83
23016;BME280;11674;52.428;13.584;2023-04-15T09:00:19;100398.44;;;12.19;85.79
23016;BME280;11674;52.428;13.584;2023-04-15T09:05:26;100402.34;;;12.18;85.76
23016;BME280;11674;52.428;13.584;2023-04-15T09:10:33;100408.44;;;12.20;86.08
23016;BME280;11674;52.428;13.584;2023-04-15T09:15:40;100403.06;;;12.24;86.11
23016;BME280;11674;52.428;13.584;2023-04-15T09:20:47;100418.00;;;12.28;86.33
23016;BME280;11674;52.428;13.584;2023-04-15T09:25:56;100413.97;;;12.34;86.03
23016;BME280;11674;52.428;13.584;2023-04-15T09:31:03;100422.81;;;12.36;86.11
23016;BME280;11674;52.428;13.584;2023-04-15T09:36:10;100435.19;;;12.30;86.23
23016;BME280;11674;52.428;13.584;2023-04-15T09:41:18;100443.25;;;12.31;86.07
23016;BME280;11674;52.428;13.584;2023-04-15T09:46:40;100446.97;;;12.27;85.97
23016;BME280;11674;52.428;13.584;2023-04-15T09:51:47;100450.34;;;12.24;86.07
23016;BME280;11674;52.428;13.584;2023-04-15T09:56:54;100447.66;;;12.32;86.20
23016;BME280;11674;52.428;13.584;2023-04-15T10:02:03;100460.63;;;12.37;86.13
23016;BME280;11674;52.428;13.584;2023-04-15T10:07:11;100454.16;;;12.41;86.43
23016;BME280;11674;52.428;13.584;2023-04-15T10:12:19;100460.22;;;12.43;86.12
23016;BME280;11674;52.428;13.584;2023-04-15T10:17:27;100459.63;;;12.46;86.01
23016;BME280;11674;52.428;13.584;2023-04-15T10:22:35;100466.09;;;12.42;86.28
23016;BME280;11674;52.428;13.584;2023-04-15T10:27:41;100469.72;;;12.42;86.62
23016;BME280;11674;52.428;13.584;2023-04-15T10:32:49;100464.97;;;12.43;86.02
23016;BME280;11674;52.428;13.584;2023-04-15T10:37:55;100471.16;;;12.40;86.18
23016;BME280;11674;52.428;13.584;2023-04-15T10:43:02;100472.78;;;12.41;86.30
23016;BME280;11674;52.428;13.584;2023-04-15T10:48:09;100482.06;;;12.36;86.33
23016;BME280;11674;52.428;13.584;2023-04-15T10:53:29;100481.97;;;12.41;86.55
23016;BME280;11674;52.428;13.584;2023-04-15T10:58:42;100484.47;;;12.43;86.26
23016;BME280;11674;52.428;13.584;2023-04-15T11:03:49;100492.47;;;12.44;86.46
23016;BME280;11674;52.428;13.584;2023-04-15T11:08:58;100499.06;;;12.48;86.35
23016;BME280;11674;52.428;13.584;2023-04-15T11:14:13;100502.69;;;12.49;86.45
23016;BME280;11674;52.428;13.584;2023-04-15T11:19:20;100504.94;;;12.47;86.35
23016;BME280;11674;52.428;13.584;2023-04-15T11:24:27;100515.25;;;12.46;86.29
23016;BME280;11674;52.428;13.584;2023-04-15T11:29:34;100524.22;;;12.43;86.41
23016;BME280;11674;52.428;13.584;2023-04-15T11:34:44;100520.63;;;12.43;86.63
23016;BME280;11674;52.428;13.584;2023-04-15T11:39:51;100526.69;;;12.45;86.36
23016;BME280;11674;52.428;13.584;2023-04-15T11:45:12;100529.97;;;12.47;86.54
23016;BME280;11674;52.428;13.584;2023-04-15T11:50:21;100536.56;;;12.51;86.49
23016;BME280;11674;52.428;13.584;2023-04-15T11:55:29;100541.00;;;12.52;86.45
23016;BME280;11674;52.428;13.584;2023-04-15T12:00:37;100547.09;;;12.54;86.22
23016;BME280;11674;52.428;13.584;2023-04-15T12:06:16;100554.91;;;12.52;86.33
23016;BME280;11674;52.428;13.584;2023-04-15T12:16:35;100552.88;;;12.57;86.42
23016;BME280;11674;52.428;13.584;2023-04-15T12:21:46;100556.16;;;12.59;86.32
23016;BME280;11674;52.428;13.584;2023-04-15T12:26:56;100563.25;;;12.65;86.53
23016;BME280;11674;52.428;13.584;2023-04-15T12:32:11;100568.84;;;12.65;86.67
23016;BME280;11674;52.428;13.584;2023-04-15T12:37:19;100573.91;;;12.77;86.49
23016;BME280;11674;52.428;13.584;2023-04-15T12:42:26;100574.94;;;12.81;86.50
23016;BME280;11674;52.428;13.584;2023-04-15T12:47:33;100579.75;;;12.89;86.75
23016;BME280;11674;52.428;13.584;2023-04-15T12:52:40;100581.22;;;13.00;86.70
23016;BME280;11674;52.428;13.584;2023-04-15T12:57:47;100590.50;;;13.09;86.69
23016;BME280;11674;52.428;13.584;2023-04-15T13:02:54;100592.56;;;13.03;86.57
23016;BME280;11674;52.428;13.584;2023-04-15T13:08:02;100594.22;;;13.04;86.56
23016;BME280;11674;52.428;13.584;2023-04-15T13:13:08;100598.56;;;13.10;86.45
23016;BME280;11674;52.428;13.584;2023-04-15T13:18:15;100598.44;;;13.15;86.72
23016;BME280;11674;52.428;13.584;2023-04-15T13:23:22;100604.72;;;13.21;86.63
23016;BME280;11674;52.428;13.584;2023-04-15T13:28:29;100608.66;;;13.20;86.63
23016;BME280;11674;52.428;13.584;2023-04-15T13:33:36;100614.94;;;13.25;86.36
23016;BME280;11674;52.428;13.584;2023-04-15T13:38:43;100616.59;;;13.26;86.58
23016;BME280;11674;52.428;13.584;2023-04-15T13:43:50;100624.09;;;13.26;86.33
23016;BME280;11674;52.428;13.584;2023-04-15T13:48:57;100626.97;;;13.34;86.87
23016;BME280;11674;52.428;13.584;2023-04-15T13:54:04;100637.72;;;13.41;86.53
23016;BME280;11674;52.428;13.584;2023-04-15T13:59:12;100639.56;;;13.32;86.12
23016;BME280;11674;52.428;13.584;2023-04-15T14:04:18;100645.16;;;13.32;86.21
23016;BME280;11674;52.428;13.584;2023-04-15T14:09:25;100646.78;;;13.33;86.50
23016;BME280;11674;52.428;13.584;2023-04-15T14:14:32;100648.03;;;13.40;86.55
23016;BME280;11674;52.428;13.584;2023-04-15T14:19:39;100654.81;;;13.48;86.80
23016;BME280;11674;52.428;13.584;2023-04-15T14:24:46;100659.69;;;13.56;86.66
23016;BME280;11674;52.428;13.584;2023-04-15T14:29:53;100666.06;;;13.56;86.02
23016;BME280;11674;52.428;13.584;2023-04-15T14:35:00;100673.75;;;13.37;85.86
23016;BME280;11674;52.428;13.584;2023-04-15T14:40:08;100674.25;;;13.26;86.19
23016;BME280;11674;52.428;13.584;2023-04-15T14:45:14;100691.38;;;13.19;86.53
23016;BME280;11674;52.428;13.584;2023-04-15T14:50:21;100690.97;;;13.26;86.52
23016;BME280;11674;52.428;13.584;2023-04-15T14:55:28;100690.88;;;13.31;86.54
23016;BME280;11674;52.428;13.584;2023-04-15T15:00:37;100695.00;;;13.33;86.68
23016;BME280;11674;52.428;13.584;2023-04-15T15:05:45;100696.84;;;13.38;86.30
23016;BME280;11674;52.428;13.584;2023-04-15T15:10:52;100704.69;;;13.36;86.46
23016;BME280;11674;52.428;13.584;2023-04-15T15:15:59;100714.81;;;13.32;86.27
23016;BME280;11674;52.428;13.584;2023-04-15T15:21:06;100718.72;;;13.31;86.45
23016;BME280;11674;52.428;13.584;2023-04-15T15:26:13;100720.16;;;13.28;86.44
23016;BME280;11674;52.428;13.584;2023-04-15T15:31:20;100732.06;;;13.34;86.38
23016;BME280;11674;52.428;13.584;2023-04-15T15:36:28;100729.16;;;13.39;86.62
23016;BME280;11674;52.428;13.584;2023-04-15T15:41:35;100730.91;;;13.48;86.47
23016;BME280;11674;52.428;13.584;2023-04-15T15:46:42;100730.16;;;13.56;86.31
23016;BME280;11674;52.428;13.584;2023-04-15T15:51:49;100738.22;;;13.58;86.03
23016;BME280;11674;52.428;13.584;2023-04-15T15:56:56;100737.94;;;13.46;86.09
23016;BME280;11674;52.428;13.584;2023-04-15T16:02:03;100755.88;;;13.40;86.20
23016;BME280;11674;52.428;13.584;2023-04-15T16:07:10;100758.97;;;13.38;86.34
23016;BME280;11674;52.428;13.584;2023-04-15T16:12:17;100760.63;;;13.39;86.10
23016;BME280;11674;52.428;13.584;2023-04-15T16:17:24;100772.31;;;13.41;86.11
23016;BME280;11674;52.428;13.584;2023-04-15T16:22:33;100769.53;;;13.41;86.09
23016;BME280;11674;52.428;13.584;2023-04-15T16:27:40;100778.69;;;13.42;86.12
23016;BME280;11674;52.428;13.584;2023-04-15T16:32:48;100778.69;;;13.42;86.08
23016;BME280;11674;52.428;13.584;2023-04-15T16:37:54;100784.06;;;13.38;86.01
23016;BME280;11674;52.428;13.584;2023-04-15T16:43:02;100786.34;;;13.36;86.14
23016;BME280;11674;52.428;13.584;2023-04-15T16:48:09;100792.22;;;13.35;86.06
23016;BME280;11674;52.428;13.584;2023-04-15T16:53:16;100798.38;;;13.32;86.15
23016;BME280;11674;52.428;13.584;2023-04-15T16:58:23;100803.44;;;13.30;86.04
23016;BME280;11674;52.428;13.584;2023-04-15T17:03:30;100807.97;;;13.26;86.11
23016;BME280;11674;52.428;13.584;2023-04-15T17:08:37;100812.75;;;13.25;86.18
23016;BME280;11674;52.428;13.584;2023-04-15T17:13:45;100817.47;;;13.25;86.30
23016;BME280;11674;52.428;13.584;2023-04-15T17:18:52;100826.97;;;13.24;86.25
23016;BME280;11674;52.428;13.584;2023-04-15T17:23:59;100834.78;;;13.22;86.34
23016;BME280;11674;52.428;13.584;2023-04-15T17:29:06;100837.56;;;13.22;86.45
23016;BME280;11674;52.428;13.584;2023-04-15T17:34:13;100837.06;;;13.20;85.88
23016;BME280;11674;52.428;13.584;2023-04-15T17:39:20;100851.59;;;13.17;85.99
23016;BME280;11674;52.428;13.584;2023-04-15T17:44:27;100854.78;;;13.10;86.25
23016;BME280;11674;52.428;13.584;2023-04-15T17:49:34;100867.25;;;12.99;85.90
23016;BME280;11674;52.428;13.584;2023-04-15T17:54:41;100870.97;;;12.90;86.05
23016;BME280;11674;52.428;13.584;2023-04-15T17:59:48;100876.59;;;12.85;86.09
23016;BME280;11674;52.428;13.584;2023-04-15T18:04:55;100878.38;;;12.81;86.23
23016;BME280;11674;52.428;13.584;2023-04-15T18:10:02;100891.22;;;12.77;86.39
23016;BME280;11674;52.428;13.584;2023-04-15T18:15:10;100896.88;;;12.72;86.20
23016;BME280;11674;52.428;13.584;2023-04-15T18:20:17;100903.03;;;12.69;86.49
23016;BME280;11674;52.428;13.584;2023-04-15T18:25:24;100911.16;;;12.65;86.47
23016;BME280;11674;52.428;13.584;2023-04-15T18:30:31;100913.44;;;12.63;86.47
23016;BME280;11674;52.428;13.584;2023-04-15T18:35:38;100924.84;;;12.62;86.59
23016;BME280;11674;52.428;13.584;2023-04-15T18:40:45;100925.47;;;12.59;86.65
23016;BME280;11674;52.428;13.584;2023-04-15T18:45:52;100934.09;;;12.57;86.47
23016;BME280;11674;52.428;13.584;2023-04-15T18:50:59;100940.81;;;12.56;86.62
23016;BME280;11674;52.428;13.584;2023-04-15T18:56:06;100940.25;;;12.54;86.35
23016;BME280;11674;52.428;13.584;2023-04-15T19:01:13;100946.44;;;12.51;86.63
23016;BME280;11674;52.428;13.584;2023-04-15T19:06:20;100945.59;;;12.51;86.82
23016;BME280;11674;52.428;13.584;2023-04-15T19:11:27;100960.66;;;12.50;86.70
23016;BME280;11674;52.428;13.584;2023-04-15T19:16:34;100965.38;;;12.49;86.64
23016;BME280;11674;52.428;13.584;2023-04-15T19:21:48;100967.63;;;12.47;86.72
23016;BME280;11674;52.428;13.584;2023-04-15T19:26:55;100971.84;;;12.45;86.50
23016;BME280;11674;52.428;13.584;2023-04-15T19:32:02;100976.56;;;12.44;86.68
23016;BME280;11674;52.428;13.584;2023-04-15T19:37:10;100978.53;;;12.44;86.75
23016;BME280;11674;52.428;13.584;2023-04-15T19:42:16;100984.63;;;12.46;86.59
23016;BME280;11674;52.428;13.584;2023-04-15T19:47:23;100988.53;;;12.45;86.48
23016;BME280;11674;52.428;13.584;2023-04-15T19:52:30;100990.81;;;12.43;86.76
23016;BME280;11674;52.428;13.584;2023-04-15T19:57:37;100988.81;;;12.43;86.87
23016;BME280;11674;52.428;13.584;2023-04-15T20:02:44;101001.38;;;12.41;86.43
23016;BME280;11674;52.428;13.584;2023-04-15T20:07:51;101000.25;;;12.42;86.62
23016;BME280;11674;52.428;13.584;2023-04-15T20:12:58;100999.50;;;12.36;86.57
23016;BME280;11674;52.428;13.584;2023-04-15T20:18:05;100998.94;;;12.34;86.74
23016;BME280;11674;52.428;13.584;2023-04-15T20:23:12;100999.84;;;12.30;86.64
23016;BME280;11674;52.428;13.584;2023-04-15T20:28:35;101014.03;;;12.28;86.92
23016;BME280;11674;52.428;13.584;2023-04-15T20:33:42;101015.47;;;12.26;86.88
23016;BME280;11674;52.428;13.584;2023-04-15T20:38:49;101018.25;;;12.26;86.84
23016;BME280;11674;52.428;13.584;2023-04-15T20:43:56;101019.91;;;12.27;86.81
23016;BME280;11674;52.428;13.584;2023-04-15T20:49:03;101015.22;;;12.22;86.89
23016;BME280;11674;52.428;13.584;2023-04-15T20:54:10;101016.06;;;12.23;86.71
23016;BME280;11674;52.428;13.584;2023-04-15T20:59:17;101026.91;;;12.24;86.95
23016;BME280;11674;52.428;13.584;2023-04-15T21:04:24;101027.19;;;12.23;86.78
23016;BME280;11674;52.428;13.584;2023-04-15T21:09:31;101031.09;;;12.22;86.85
23016;BME280;11674;52.428;13.584;2023-04-15T21:14:38;101037.25;;;12.19;86.62
23016;BME280;11674;52.428;13.584;2023-04-15T21:19:45;101040.03;;;12.19;86.65
23016;BME280;11674;52.428;13.584;2023-04-15T21:24:52;101045.88;;;12.17;86.72
23016;BME280;11674;52.428;13.584;2023-04-15T21:29:59;101055.94;;;12.13;86.62
23016;BME280;11674;52.428;13.584;2023-04-15T21:35:07;101057.03;;;12.12;86.71
23016;BME280;11674;52.428;13.584;2023-04-15T21:40:14;101067.13;;;12.08;86.56
23016;BME280;11674;52.428;13.584;2023-04-15T21:45:21;101077.94;;;12.10;86.72
23016;BME280;11674;52.428;13.584;2023-04-15T21:50:28;101083.19;;;12.11;86.82
23016;BME280;11674;52.428;13.584;2023-04-15T21:55:35;101087.97;;;12.11;86.66
23016;BME280;11674;52.428;13.584;2023-04-15T22:00:42;101087.97;;;12.11;86.56
23016;BME280;11674;52.428;13.584;2023-04-15T22:05:49;101095.75;;;12.09;86.71
23016;BME280;11674;52.428;13.584;2023-04-15T22:10:56;101095.44;;;12.10;86.86
23016;BME280;11674;52.428;13.584;2023-04-15T22:16:03;101103.78;;;12.10;86.84
23016;BME280;11674;52.428;13.584;2023-04-15T22:21:11;101109.88;;;12.12;86.84
23016;BME280;11674;52.428;13.584;2023-04-15T22:26:18;101110.72;;;12.13;86.64
23016;BME280;11674;52.428;13.584;2023-04-15T22:31:25;101108.22;;;12.11;86.74
23016;BME280;11674;52.428;13.584;2023-04-15T22:36:32;101119.34;;;12.11;86.68
23016;BME280;11674;52.428;13.584;2023-04-15T22:41:39;101116.56;;;12.11;86.88
23016;BME280;11674;52.428;13.584;2023-04-15T22:46:49;101132.13;;;12.12;86.55
23016;BME280;11674;52.428;13.584;2023-04-15T22:51:56;101132.97;;;12.13;86.88
23016;BME280;11674;52.428;13.584;2023-04-15T22:57:03;101136.28;;;12.15;86.47
23016;BME280;11674;52.428;13.584;2023-04-15T23:02:10;101140.19;;;12.14;86.55
23016;BME280;11674;52.428;13.584;2023-04-15T23:07:17;101147.66;;;12.18;86.83
23016;BME280;11674;52.428;13.584;2023-04-15T23:12:24;101150.72;;;12.22;86.67
23016;BME280;11674;52.428;13.584;2023-04-15T23:17:31;101153.72;;;12.25;86.48
23016;BME280;11674;52.428;13.584;2023-04-15T23:22:38;101155.38;;;12.26;86.52
23016;BME280;11674;52.428;13.584;2023-04-15T23:27:45;101165.09;;;12.29;86.34
23016;BME280;11674;52.428;13.584;2023-04-15T23:32:52;101166.50;;;12.26;86.07
23016;BME280;11674;52.428;13.584;2023-04-15T23:37:59;101175.19;;;12.20;86.05
23016;BME280;11674;52.428;13.584;2023-04-15T23:43:09;101164.09;;;12.15;86.08
23016;BME280;11674;52.428;13.584;2023-04-15T23:48:15;101165.81;;;12.11;86.51
23016;BME280;11674;52.428;13.584;2023-04-15T23:53:22;101167.75;;;12.10;86.53
23016;BME280;11674;52.428;13.584;2023-04-15T23:58:29;101168.59;;;12.11;86.37
